sensor_id;sensor_type;location;lat;lon;timestamp;P1;durP1;ratioP1;P2;durP2;ratioP2
37157;SDS011;23050;51.776;22.638;2024-01-11T00:01:17;107.53;;;40.15;;
37157;SDS011;23050;51.776;22.638;2024-01-11T00:03:43;108.47;;;39.88;;
37157;SDS011;23050;51.776;22.638;2024-01-11T00:06:08;104.00;;;39.20;;
37157;SDS011;23050;51.776;22.638;2024-01-11T00:08:34;97.68;;;39.15;;
37157;SDS011;23050;51.776;22.638;2024-01-11T00:11:00;103.25;;;38.53;;
37157;SDS011;23050;51.776;22.638;2024-01-11T00:13:25;103.55;;;41.42;;
37157;SDS011;23050;51.776;22.638;2024-01-11T00:15:51;107.22;;;39.38;;
37157;SDS011;23050;51.776;22.638;2024-01-11T00:18:17;102.13;;;40.47;;
37157;SDS011;23050;51.776;22.638;2024-01-11T00:20:43;103.22;;;36.05;;
37157;SDS011;23050;51.776;22.638;2024-01-11T00:23:09;124.75;;;48.22;;
37157;SDS011;23050;51.776;22.638;2024-01-11T00:25:35;99.97;;;38.67;;
37157;SDS011;23050;51.776;22.638;2024-01-11T00:28:01;108.30;;;42.38;;
37157;SDS011;23050;51.776;22.638;2024-01-11T00:30:26;93.40;;;35.30;;
37157;SDS011;23050;51.776;22.638;2024-01-11T00:32:52;100.95;;;36.58;;
37157;SDS011;23050;51.776;22.638;2024-01-11T00:35:18;101.80;;;36.47;;
37157;SDS011;23050;51.776;22.638;2024-01-11T00:37:44;99.25;;;37.53;;
37157;SDS011;23050;51.776;22.638;2024-01-11T00:40:10;90.65;;;34.90;;
37157;SDS011;23050;51.776;22.638;2024-01-11T00:42:36;83.63;;;32.03;;
37157;SDS011;23050;51.776;22.638;2024-01-11T00:45:01;102.65;;;39.67;;
37157;SDS011;23050;51.776;22.638;2024-01-11T00:47:27;96.75;;;38.17;;
37157;SDS011;23050;51.776;22.638;2024-01-11T00:49:53;100.10;;;38.13;;
37157;SDS011;23050;51.776;22.638;2024-01-11T00:52:19;113.25;;;38.85;;
37157;SDS011;23050;51.776;22.638;2024-01-11T00:54:44;102.32;;;38.15;;
37157;SDS011;23050;51.776;22.638;2024-01-11T00:57:10;105.40;;;40.72;;
37157;SDS011;23050;51.776;22.638;2024-01-11T00:59:35;120.75;;;42.88;;
37157;SDS011;23050;51.776;22.638;2024-01-11T01:02:01;108.93;;;42.38;;
37157;SDS011;23050;51.776;22.638;2024-01-11T01:04:27;107.70;;;40.80;;
37157;SDS011;23050;51.776;22.638;2024-01-11T01:06:52;117.65;;;45.28;;
37157;SDS011;23050;51.776;22.638;2024-01-11T01:09:18;97.93;;;38.35;;
37157;SDS011;23050;51.776;22.638;2024-01-11T01:11:43;101.30;;;36.80;;
37157;SDS011;23050;51.776;22.638;2024-01-11T01:14:09;104.45;;;41.00;;
37157;SDS011;23050;51.776;22.638;2024-01-11T01:16:34;102.00;;;41.03;;
37157;SDS011;23050;51.776;22.638;2024-01-11T01:19:00;88.05;;;35.83;;
37157;SDS011;23050;51.776;22.638;2024-01-11T01:21:26;95.53;;;36.38;;
37157;SDS011;23050;51.776;22.638;2024-01-11T01:23:51;92.45;;;36.05;;
37157;SDS011;23050;51.776;22.638;2024-01-11T01:26:17;88.25;;;33.88;;
37157;SDS011;23050;51.776;22.638;2024-01-11T01:28:42;100.30;;;37.03;;
37157;SDS011;23050;51.776;22.638;2024-01-11T01:31:08;97.60;;;37.85;;
37157;SDS011;23050;51.776;22.638;2024-01-11T01:33:34;91.35;;;35.95;;
37157;SDS011;23050;51.776;22.638;2024-01-11T01:36:00;90.75;;;36.22;;
37157;SDS011;23050;51.776;22.638;2024-01-11T01:38:25;84.80;;;35.90;;
37157;SDS011;23050;51.776;22.638;2024-01-11T01:40:51;101.45;;;36.30;;
37157;SDS011;23050;51.776;22.638;2024-01-11T01:43:17;101.60;;;39.72;;
37157;SDS011;23050;51.776;22.638;2024-01-11T01:45:42;87.10;;;36.17;;
37157;SDS011;23050;51.776;22.638;2024-01-11T01:48:08;92.32;;;36.60;;
37157;SDS011;23050;51.776;22.638;2024-01-11T01:50:33;96.50;;;37.20;;
37157;SDS011;23050;51.776;22.638;2024-01-11T01:52:59;96.20;;;38.90;;
37157;SDS011;23050;51.776;22.638;2024-01-11T01:55:26;94.03;;;36.25;;
37157;SDS011;23050;51.776;22.638;2024-01-11T01:57:53;96.22;;;35.97;;
37157;SDS011;23050;51.776;22.638;2024-01-11T02:00:20;94.50;;;37.60;;
37157;SDS011;23050;51.776;22.638;2024-01-11T02:02:46;86.45;;;30.15;;
37157;SDS011;23050;51.776;22.638;2024-01-11T02:05:16;83.03;;;34.05;;
37157;SDS011;23050;51.776;22.638;2024-01-11T02:07:42;49.33;;;20.25;;
37157;SDS011;23050;51.776;22.638;2024-01-11T02:10:09;91.38;;;36.17;;
37157;SDS011;23050;51.776;22.638;2024-01-11T02:12:35;81.15;;;33.92;;
37157;SDS011;23050;51.776;22.638;2024-01-11T02:15:02;95.00;;;37.58;;
37157;SDS011;23050;51.776;22.638;2024-01-11T02:17:29;94.78;;;36.45;;
37157;SDS011;23050;51.776;22.638;2024-01-11T02:19:57;88.10;;;33.40;;
37157;SDS011;23050;51.776;22.638;2024-01-11T02:22:34;95.80;;;32.65;;
37157;SDS011;23050;51.776;22.638;2024-01-11T02:25:03;80.32;;;29.65;;
37157;SDS011;23050;51.776;22.638;2024-01-11T02:27:29;82.47;;;31.65;;
37157;SDS011;23050;51.776;22.638;2024-01-11T02:29:54;84.70;;;31.05;;
37157;SDS011;23050;51.776;22.638;2024-01-11T02:32:20;87.10;;;33.92;;
37157;SDS011;23050;51.776;22.638;2024-01-11T02:34:46;80.53;;;32.15;;
37157;SDS011;23050;51.776;22.638;2024-01-11T02:37:13;81.57;;;33.20;;
37157;SDS011;23050;51.776;22.638;2024-01-11T02:39:39;85.72;;;30.75;;
37157;SDS011;23050;51.776;22.638;2024-01-11T02:42:05;77.13;;;29.15;;
37157;SDS011;23050;51.776;22.638;2024-01-11T02:44:30;78.28;;;31.45;;
37157;SDS011;23050;51.776;22.638;2024-01-11T02:46:56;90.18;;;31.88;;
37157;SDS011;23050;51.776;22.638;2024-01-11T02:49:21;92.78;;;30.80;;
37157;SDS011;23050;51.776;22.638;2024-01-11T02:51:47;84.75;;;31.52;;
37157;SDS011;23050;51.776;22.638;2024-01-11T02:54:12;79.72;;;31.75;;
37157;SDS011;23050;51.776;22.638;2024-01-11T02:56:38;91.70;;;32.67;;
37157;SDS011;23050;51.776;22.638;2024-01-11T02:59:03;88.00;;;33.20;;
37157;SDS011;23050;51.776;22.638;2024-01-11T03:01:29;81.28;;;31.30;;
37157;SDS011;23050;51.776;22.638;2024-01-11T03:03:55;85.00;;;32.42;;
37157;SDS011;23050;51.776;22.638;2024-01-11T03:06:21;96.53;;;32.53;;
37157;SDS011;23050;51.776;22.638;2024-01-11T03:08:48;93.60;;;38.20;;
37157;SDS011;23050;51.776;22.638;2024-01-11T03:11:14;98.97;;;40.25;;
37157;SDS011;23050;51.776;22.638;2024-01-11T03:13:41;81.57;;;31.15;;
37157;SDS011;23050;51.776;22.638;2024-01-11T03:16:06;87.65;;;32.33;;
37157;SDS011;23050;51.776;22.638;2024-01-11T03:18:33;87.57;;;31.70;;
37157;SDS011;23050;51.776;22.638;2024-01-11T03:20:59;88.20;;;34.72;;
37157;SDS011;23050;51.776;22.638;2024-01-11T03:23:24;96.20;;;35.42;;
37157;SDS011;23050;51.776;22.638;2024-01-11T03:25:50;86.82;;;31.80;;
37157;SDS011;23050;51.776;22.638;2024-01-11T03:28:15;80.97;;;32.70;;
37157;SDS011;23050;51.776;22.638;2024-01-11T03:30:41;81.60;;;32.10;;
37157;SDS011;23050;51.776;22.638;2024-01-11T03:33:06;88.82;;;31.20;;
37157;SDS011;23050;51.776;22.638;2024-01-11T03:35:32;80.82;;;31.30;;
37157;SDS011;23050;51.776;22.638;2024-01-11T03:37:58;82.07;;;32.60;;
37157;SDS011;23050;51.776;22.638;2024-01-11T03:40:23;87.03;;;34.30;;
37157;SDS011;23050;51.776;22.638;2024-01-11T03:42:49;94.90;;;35.00;;
37157;SDS011;23050;51.776;22.638;2024-01-11T03:45:17;97.35;;;36.58;;
37157;SDS011;23050;51.776;22.638;2024-01-11T03:47:44;100.93;;;35.50;;
37157;SDS011;23050;51.776;22.638;2024-01-11T03:50:09;84.03;;;33.75;;
37157;SDS011;23050;51.776;22.638;2024-01-11T03:52:35;91.13;;;33.78;;
37157;SDS011;23050;51.776;22.638;2024-01-11T03:55:01;93.63;;;36.97;;
37157;SDS011;23050;51.776;22.638;2024-01-11T03:57:26;99.10;;;36.75;;
37157;SDS011;23050;51.776;22.638;2024-01-11T03:59:52;98.45;;;33.83;;
37157;SDS011;23050;51.776;22.638;2024-01-11T04:02:18;107.25;;;36.83;;
37157;SDS011;23050;51.776;22.638;2024-01-11T04:04:44;108.18;;;38.85;;
37157;SDS011;23050;51.776;22.638;2024-01-11T04:07:09;89.35;;;36.45;;
37157;SDS011;23050;51.776;22.638;2024-01-11T04:09:36;104.03;;;38.05;;
37157;SDS011;23050;51.776;22.638;2024-01-11T04:12:05;103.72;;;36.97;;
37157;SDS011;23050;51.776;22.638;2024-01-11T04:14:31;94.15;;;37.20;;
37157;SDS011;23050;51.776;22.638;2024-01-11T04:16:57;104.75;;;35.72;;
37157;SDS011;23050;51.776;22.638;2024-01-11T04:19:22;99.75;;;35.60;;
37157;SDS011;23050;51.776;22.638;2024-01-11T04:21:48;91.60;;;34.92;;
37157;SDS011;23050;51.776;22.638;2024-01-11T04:24:14;106.95;;;37.88;;
37157;SDS011;23050;51.776;22.638;2024-01-11T04:26:39;95.47;;;36.05;;
37157;SDS011;23050;51.776;22.638;2024-01-11T04:29:05;113.53;;;40.63;;
37157;SDS011;23050;51.776;22.638;2024-01-11T04:31:30;96.03;;;36.92;;
37157;SDS011;23050;51.776;22.638;2024-01-11T04:33:56;108.25;;;38.95;;
37157;SDS011;23050;51.776;22.638;2024-01-11T04:36:22;104.85;;;37.05;;
37157;SDS011;23050;51.776;22.638;2024-01-11T04:38:47;105.57;;;41.72;;
37157;SDS011;23050;51.776;22.638;2024-01-11T04:41:13;108.35;;;38.47;;
37157;SDS011;23050;51.776;22.638;2024-01-11T04:43:41;103.43;;;37.63;;
37157;SDS011;23050;51.776;22.638;2024-01-11T04:46:18;122.32;;;47.65;;
37157;SDS011;23050;51.776;22.638;2024-01-11T04:48:45;123.15;;;42.47;;
37157;SDS011;23050;51.776;22.638;2024-01-11T04:51:14;111.82;;;42.10;;
37157;SDS011;23050;51.776;22.638;2024-01-11T04:53:41;144.32;;;51.40;;
37157;SDS011;23050;51.776;22.638;2024-01-11T04:56:08;110.82;;;37.83;;
37157;SDS011;23050;51.776;22.638;2024-01-11T04:58:35;107.85;;;42.60;;
37157;SDS011;23050;51.776;22.638;2024-01-11T05:01:03;118.32;;;42.03;;
37157;SDS011;23050;51.776;22.638;2024-01-11T05:03:30;119.30;;;42.03;;
37157;SDS011;23050;51.776;22.638;2024-01-11T05:05:56;122.82;;;42.60;;
37157;SDS011;23050;51.776;22.638;2024-01-11T05:08:22;110.93;;;41.53;;
37157;SDS011;23050;51.776;22.638;2024-01-11T05:10:48;113.38;;;43.67;;
37157;SDS011;23050;51.776;22.638;2024-01-11T05:13:15;108.85;;;40.35;;
37157;SDS011;23050;51.776;22.638;2024-01-11T05:15:42;118.45;;;40.40;;
37157;SDS011;23050;51.776;22.638;2024-01-11T05:18:08;125.60;;;42.70;;
37157;SDS011;23050;51.776;22.638;2024-01-11T05:20:33;104.22;;;38.90;;
37157;SDS011;23050;51.776;22.638;2024-01-11T05:22:59;105.85;;;37.88;;
37157;SDS011;23050;51.776;22.638;2024-01-11T05:25:26;106.10;;;40.25;;
37157;SDS011;23050;51.776;22.638;2024-01-11T05:27:51;81.22;;;27.27;;
37157;SDS011;23050;51.776;22.638;2024-01-11T05:30:17;113.30;;;41.38;;
37157;SDS011;23050;51.776;22.638;2024-01-11T05:32:43;108.25;;;41.83;;
37157;SDS011;23050;51.776;22.638;2024-01-11T05:35:08;164.55;;;60.08;;
37157;SDS011;23050;51.776;22.638;2024-01-11T05:37:35;189.32;;;65.03;;
37157;SDS011;23050;51.776;22.638;2024-01-11T05:40:01;173.77;;;64.45;;
37157;SDS011;23050;51.776;22.638;2024-01-11T05:42:27;225.43;;;81.65;;
37157;SDS011;23050;51.776;22.638;2024-01-11T05:44:53;289.55;;;110.57;;
37157;SDS011;23050;51.776;22.638;2024-01-11T05:47:18;456.75;;;155.63;;
37157;SDS011;23050;51.776;22.638;2024-01-11T05:49:44;487.13;;;161.63;;
37157;SDS011;23050;51.776;22.638;2024-01-11T05:52:10;599.00;;;212.10;;
37157;SDS011;23050;51.776;22.638;2024-01-11T05:54:36;446.70;;;141.32;;
37157;SDS011;23050;51.776;22.638;2024-01-11T05:57:01;454.42;;;144.38;;
37157;SDS011;23050;51.776;22.638;2024-01-11T05:59:27;570.55;;;192.75;;
37157;SDS011;23050;51.776;22.638;2024-01-11T06:01:53;460.27;;;154.32;;
37157;SDS011;23050;51.776;22.638;2024-01-11T06:04:26;265.58;;;91.90;;
37157;SDS011;23050;51.776;22.638;2024-01-11T06:06:52;319.30;;;110.50;;
37157;SDS011;23050;51.776;22.638;2024-01-11T06:09:17;297.10;;;99.38;;
37157;SDS011;23050;51.776;22.638;2024-01-11T06:11:43;186.90;;;70.43;;
37157;SDS011;23050;51.776;22.638;2024-01-11T06:14:09;260.95;;;84.65;;
37157;SDS011;23050;51.776;22.638;2024-01-11T06:16:34;188.57;;;69.43;;
37157;SDS011;23050;51.776;22.638;2024-01-11T06:19:00;253.23;;;84.68;;
37157;SDS011;23050;51.776;22.638;2024-01-11T06:21:25;305.90;;;107.60;;
37157;SDS011;23050;51.776;22.638;2024-01-11T06:23:51;175.30;;;68.65;;
37157;SDS011;23050;51.776;22.638;2024-01-11T06:26:17;179.35;;;65.28;;
37157;SDS011;23050;51.776;22.638;2024-01-11T06:28:42;264.63;;;93.78;;
37157;SDS011;23050;51.776;22.638;2024-01-11T06:31:09;298.77;;;111.15;;
37157;SDS011;23050;51.776;22.638;2024-01-11T06:33:35;220.20;;;84.78;;
37157;SDS011;23050;51.776;22.638;2024-01-11T06:36:02;203.25;;;79.10;;
37157;SDS011;23050;51.776;22.638;2024-01-11T06:38:32;166.77;;;68.32;;
37157;SDS011;23050;51.776;22.638;2024-01-11T06:40:59;236.45;;;99.35;;
37157;SDS011;23050;51.776;22.638;2024-01-11T06:43:25;168.63;;;63.55;;
37157;SDS011;23050;51.776;22.638;2024-01-11T06:45:50;240.10;;;93.25;;
37157;SDS011;23050;51.776;22.638;2024-01-11T06:48:16;264.98;;;96.35;;
37157;SDS011;23050;51.776;22.638;2024-01-11T06:50:41;195.05;;;76.88;;
37157;SDS011;23050;51.776;22.638;2024-01-11T06:53:07;203.43;;;71.80;;
37157;SDS011;23050;51.776;22.638;2024-01-11T06:55:32;478.95;;;168.82;;
37157;SDS011;23050;51.776;22.638;2024-01-11T06:57:58;186.52;;;76.68;;
37157;SDS011;23050;51.776;22.638;2024-01-11T07:00:24;258.33;;;88.63;;
37157;SDS011;23050;51.776;22.638;2024-01-11T07:02:49;231.90;;;83.72;;
37157;SDS011;23050;51.776;22.638;2024-01-11T07:05:18;276.35;;;95.10;;
37157;SDS011;23050;51.776;22.638;2024-01-11T07:07:44;220.48;;;80.47;;
37157;SDS011;23050;51.776;22.638;2024-01-11T07:10:09;207.75;;;79.47;;
37157;SDS011;23050;51.776;22.638;2024-01-11T07:12:35;159.90;;;60.92;;
37157;SDS011;23050;51.776;22.638;2024-01-11T07:15:03;222.27;;;88.90;;
37157;SDS011;23050;51.776;22.638;2024-01-11T07:17:29;173.18;;;63.88;;
37157;SDS011;23050;51.776;22.638;2024-01-11T07:19:55;165.05;;;58.55;;
37157;SDS011;23050;51.776;22.638;2024-01-11T07:22:21;172.25;;;64.03;;
37157;SDS011;23050;51.776;22.638;2024-01-11T07:24:46;162.40;;;60.25;;
37157;SDS011;23050;51.776;22.638;2024-01-11T07:27:12;131.60;;;52.25;;
37157;SDS011;23050;51.776;22.638;2024-01-11T07:29:38;149.50;;;61.03;;
37157;SDS011;23050;51.776;22.638;2024-01-11T07:32:03;132.68;;;50.95;;
37157;SDS011;23050;51.776;22.638;2024-01-11T07:34:29;153.32;;;53.00;;
37157;SDS011;23050;51.776;22.638;2024-01-11T07:36:55;180.63;;;73.80;;
37157;SDS011;23050;51.776;22.638;2024-01-11T07:39:21;142.73;;;54.08;;
37157;SDS011;23050;51.776;22.638;2024-01-11T07:41:47;152.25;;;53.97;;
37157;SDS011;23050;51.776;22.638;2024-01-11T07:44:13;143.38;;;57.85;;
37157;SDS011;23050;51.776;22.638;2024-01-11T07:46:39;161.02;;;64.15;;
37157;SDS011;23050;51.776;22.638;2024-01-11T07:49:05;112.30;;;46.83;;
37157;SDS011;23050;51.776;22.638;2024-01-11T07:51:31;133.38;;;57.33;;
37157;SDS011;23050;51.776;22.638;2024-01-11T07:53:59;123.20;;;51.80;;
37157;SDS011;23050;51.776;22.638;2024-01-11T07:56:25;142.18;;;55.83;;
37157;SDS011;23050;51.776;22.638;2024-01-11T07:58:51;184.20;;;66.40;;
37157;SDS011;23050;51.776;22.638;2024-01-11T08:01:16;265.73;;;92.47;;
37157;SDS011;23050;51.776;22.638;2024-01-11T08:03:42;197.93;;;66.07;;
37157;SDS011;23050;51.776;22.638;2024-01-11T08:06:10;185.63;;;69.55;;
37157;SDS011;23050;51.776;22.638;2024-01-11T08:08:36;196.57;;;73.00;;
37157;SDS011;23050;51.776;22.638;2024-01-11T08:11:04;235.82;;;90.55;;
37157;SDS011;23050;51.776;22.638;2024-01-11T08:13:30;175.65;;;64.93;;
37157;SDS011;23050;51.776;22.638;2024-01-11T08:15:56;224.98;;;77.35;;
37157;SDS011;23050;51.776;22.638;2024-01-11T08:18:22;194.48;;;73.60;;
37157;SDS011;23050;51.776;22.638;2024-01-11T08:20:48;243.10;;;85.43;;
37157;SDS011;23050;51.776;22.638;2024-01-11T08:23:14;279.98;;;104.22;;
37157;SDS011;23050;51.776;22.638;2024-01-11T08:25:40;445.48;;;127.80;;
37157;SDS011;23050;51.776;22.638;2024-01-11T08:28:05;695.38;;;206.50;;
37157;SDS011;23050;51.776;22.638;2024-01-11T08:30:32;373.27;;;113.00;;
37157;SDS011;23050;51.776;22.638;2024-01-11T08:32:57;224.15;;;76.28;;
37157;SDS011;23050;51.776;22.638;2024-01-11T08:35:23;228.13;;;77.38;;
37157;SDS011;23050;51.776;22.638;2024-01-11T08:37:49;237.25;;;67.93;;
37157;SDS011;23050;51.776;22.638;2024-01-11T08:40:15;189.20;;;61.80;;
37157;SDS011;23050;51.776;22.638;2024-01-11T08:42:40;186.27;;;64.75;;
37157;SDS011;23050;51.776;22.638;2024-01-11T08:45:07;182.20;;;62.00;;
37157;SDS011;23050;51.776;22.638;2024-01-11T08:47:34;117.32;;;44.35;;
37157;SDS011;23050;51.776;22.638;2024-01-11T08:50:00;215.57;;;74.43;;
37157;SDS011;23050;51.776;22.638;2024-01-11T08:52:30;120.10;;;44.88;;
37157;SDS011;23050;51.776;22.638;2024-01-11T08:54:56;212.82;;;76.90;;
37157;SDS011;23050;51.776;22.638;2024-01-11T08:57:22;211.63;;;71.20;;
37157;SDS011;23050;51.776;22.638;2024-01-11T08:59:48;179.48;;;61.90;;
37157;SDS011;23050;51.776;22.638;2024-01-11T09:02:13;226.90;;;77.95;;
37157;SDS011;23050;51.776;22.638;2024-01-11T09:04:39;162.25;;;61.15;;
37157;SDS011;23050;51.776;22.638;2024-01-11T09:07:05;201.32;;;75.97;;
37157;SDS011;23050;51.776;22.638;2024-01-11T09:09:30;186.27;;;68.18;;
37157;SDS011;23050;51.776;22.638;2024-01-11T09:11:56;175.05;;;67.53;;
37157;SDS011;23050;51.776;22.638;2024-01-11T09:14:21;356.35;;;131.13;;
37157;SDS011;23050;51.776;22.638;2024-01-11T09:16:47;271.02;;;99.13;;
37157;SDS011;23050;51.776;22.638;2024-01-11T09:19:14;217.13;;;76.47;;
37157;SDS011;23050;51.776;22.638;2024-01-11T09:21:39;203.88;;;70.35;;
37157;SDS011;23050;51.776;22.638;2024-01-11T09:24:07;192.77;;;57.90;;
37157;SDS011;23050;51.776;22.638;2024-01-11T09:26:33;347.63;;;102.78;;
37157;SDS011;23050;51.776;22.638;2024-01-11T09:28:58;300.33;;;93.95;;
37157;SDS011;23050;51.776;22.638;2024-01-11T09:31:24;317.30;;;91.28;;
37157;SDS011;23050;51.776;22.638;2024-01-11T09:33:50;339.83;;;96.63;;
37157;SDS011;23050;51.776;22.638;2024-01-11T09:36:15;310.30;;;84.60;;
37157;SDS011;23050;51.776;22.638;2024-01-11T09:38:41;320.80;;;88.55;;
37157;SDS011;23050;51.776;22.638;2024-01-11T09:41:08;489.45;;;152.98;;
37157;SDS011;23050;51.776;22.638;2024-01-11T09:43:38;376.00;;;119.25;;
37157;SDS011;23050;51.776;22.638;2024-01-11T09:46:06;187.73;;;53.78;;
37157;SDS011;23050;51.776;22.638;2024-01-11T09:48:34;158.18;;;52.50;;
37157;SDS011;23050;51.776;22.638;2024-01-11T09:51:01;245.27;;;78.45;;
37157;SDS011;23050;51.776;22.638;2024-01-11T09:53:33;236.02;;;77.93;;
37157;SDS011;23050;51.776;22.638;2024-01-11T09:55:59;308.55;;;97.13;;
37157;SDS011;23050;51.776;22.638;2024-01-11T09:58:26;147.07;;;50.92;;
37157;SDS011;23050;51.776;22.638;2024-01-11T10:00:55;222.18;;;72.60;;
37157;SDS011;23050;51.776;22.638;2024-01-11T10:03:22;196.50;;;71.22;;
37157;SDS011;23050;51.776;22.638;2024-01-11T10:05:49;163.90;;;60.10;;
37157;SDS011;23050;51.776;22.638;2024-01-11T10:08:17;221.20;;;78.78;;
37157;SDS011;23050;51.776;22.638;2024-01-11T10:10:46;167.52;;;59.53;;
37157;SDS011;23050;51.776;22.638;2024-01-11T10:13:12;192.85;;;74.38;;
37157;SDS011;23050;51.776;22.638;2024-01-11T10:15:37;177.25;;;65.68;;
37157;SDS011;23050;51.776;22.638;2024-01-11T10:18:03;149.52;;;55.22;;
37157;SDS011;23050;51.776;22.638;2024-01-11T10:20:29;200.70;;;69.28;;
37157;SDS011;23050;51.776;22.638;2024-01-11T10:22:57;234.77;;;76.57;;
37157;SDS011;23050;51.776;22.638;2024-01-11T10:25:23;200.80;;;78.07;;
37157;SDS011;23050;51.776;22.638;2024-01-11T10:27:49;294.67;;;123.22;;
37157;SDS011;23050;51.776;22.638;2024-01-11T10:30:14;271.35;;;115.63;;
37157;SDS011;23050;51.776;22.638;2024-01-11T10:32:42;205.77;;;78.63;;
37157;SDS011;23050;51.776;22.638;2024-01-11T10:35:11;196.50;;;79.03;;
37157;SDS011;23050;51.776;22.638;2024-01-11T10:37:37;173.85;;;64.18;;
37157;SDS011;23050;51.776;22.638;2024-01-11T10:40:06;144.02;;;53.03;;
37157;SDS011;23050;51.776;22.638;2024-01-11T10:42:43;148.73;;;50.40;;
37157;SDS011;23050;51.776;22.638;2024-01-11T10:45:14;170.27;;;66.68;;
37157;SDS011;23050;51.776;22.638;2024-01-11T10:47:52;129.98;;;50.90;;
37157;SDS011;23050;51.776;22.638;2024-01-11T10:50:24;144.82;;;51.50;;
37157;SDS011;23050;51.776;22.638;2024-01-11T10:55:33;272.45;;;99.63;;
37157;SDS011;23050;51.776;22.638;2024-01-11T10:58:00;146.60;;;60.22;;
37157;SDS011;23050;51.776;22.638;2024-01-11T11:00:29;281.95;;;90.80;;
37157;SDS011;23050;51.776;22.638;2024-01-11T11:02:56;175.73;;;61.13;;
37157;SDS011;23050;51.776;22.638;2024-01-11T11:05:28;105.88;;;37.75;;
37157;SDS011;23050;51.776;22.638;2024-01-11T11:07:55;192.90;;;64.97;;
37157;SDS011;23050;51.776;22.638;2024-01-11T11:10:21;353.98;;;105.28;;
37157;SDS011;23050;51.776;22.638;2024-01-11T11:12:48;494.67;;;140.10;;
37157;SDS011;23050;51.776;22.638;2024-01-11T11:15:14;492.30;;;152.05;;
37157;SDS011;23050;51.776;22.638;2024-01-11T11:17:40;322.67;;;100.90;;
37157;SDS011;23050;51.776;22.638;2024-01-11T11:20:08;449.25;;;136.57;;
37157;SDS011;23050;51.776;22.638;2024-01-11T11:22:40;246.50;;;87.82;;
37157;SDS011;23050;51.776;22.638;2024-01-11T11:25:07;451.25;;;131.50;;
37157;SDS011;23050;51.776;22.638;2024-01-11T11:27:34;150.32;;;48.17;;
37157;SDS011;23050;51.776;22.638;2024-01-11T11:30:00;199.30;;;62.47;;
37157;SDS011;23050;51.776;22.638;2024-01-11T11:32:34;206.10;;;58.45;;
37157;SDS011;23050;51.776;22.638;2024-01-11T11:35:07;327.77;;;91.90;;
37157;SDS011;23050;51.776;22.638;2024-01-11T11:37:33;454.52;;;121.88;;
37157;SDS011;23050;51.776;22.638;2024-01-11T11:40:03;389.23;;;100.20;;
37157;SDS011;23050;51.776;22.638;2024-01-11T11:42:34;281.02;;;81.20;;
37157;SDS011;23050;51.776;22.638;2024-01-11T11:45:00;360.70;;;90.70;;
37157;SDS011;23050;51.776;22.638;2024-01-11T11:47:32;579.33;;;158.48;;
37157;SDS011;23050;51.776;22.638;2024-01-11T11:50:05;520.33;;;146.65;;
37157;SDS011;23050;51.776;22.638;2024-01-11T11:52:39;323.60;;;97.07;;
37157;SDS011;23050;51.776;22.638;2024-01-11T11:55:07;322.55;;;97.05;;
37157;SDS011;23050;51.776;22.638;2024-01-11T11:57:34;280.60;;;76.57;;
37157;SDS011;23050;51.776;22.638;2024-01-11T12:00:01;294.73;;;82.97;;
37157;SDS011;23050;51.776;22.638;2024-01-11T12:02:30;281.38;;;82.60;;
37157;SDS011;23050;51.776;22.638;2024-01-11T12:04:57;153.32;;;49.33;;
37157;SDS011;23050;51.776;22.638;2024-01-11T12:07:22;119.40;;;42.72;;
37157;SDS011;23050;51.776;22.638;2024-01-11T12:09:48;158.85;;;58.38;;
37157;SDS011;23050;51.776;22.638;2024-01-11T12:12:16;192.95;;;65.15;;
37157;SDS011;23050;51.776;22.638;2024-01-11T12:14:43;167.55;;;62.50;;
37157;SDS011;23050;51.776;22.638;2024-01-11T12:17:08;176.98;;;74.28;;
37157;SDS011;23050;51.776;22.638;2024-01-11T12:19:34;89.30;;;36.58;;
37157;SDS011;23050;51.776;22.638;2024-01-11T12:22:00;93.38;;;39.15;;
37157;SDS011;23050;51.776;22.638;2024-01-11T12:24:26;125.47;;;45.58;;
37157;SDS011;23050;51.776;22.638;2024-01-11T12:26:52;198.95;;;74.20;;
37157;SDS011;23050;51.776;22.638;2024-01-11T12:29:19;170.23;;;72.32;;
37157;SDS011;23050;51.776;22.638;2024-01-11T12:31:45;120.88;;;52.00;;
37157;SDS011;23050;51.776;22.638;2024-01-11T12:34:14;131.20;;;52.22;;
37157;SDS011;23050;51.776;22.638;2024-01-11T12:36:40;78.28;;;35.17;;
37157;SDS011;23050;51.776;22.638;2024-01-11T12:39:07;167.18;;;65.28;;
37157;SDS011;23050;51.776;22.638;2024-01-11T12:41:34;110.38;;;40.58;;
37157;SDS011;23050;51.776;22.638;2024-01-11T12:44:01;164.40;;;55.78;;
37157;SDS011;23050;51.776;22.638;2024-01-11T12:46:27;79.45;;;32.90;;
37157;SDS011;23050;51.776;22.638;2024-01-11T12:48:53;111.28;;;43.35;;
37157;SDS011;23050;51.776;22.638;2024-01-11T12:51:19;94.53;;;38.03;;
37157;SDS011;23050;51.776;22.638;2024-01-11T12:53:46;97.07;;;49.45;;
37157;SDS011;23050;51.776;22.638;2024-01-11T12:56:14;142.88;;;57.45;;
37157;SDS011;23050;51.776;22.638;2024-01-11T12:58:41;215.80;;;76.13;;
37157;SDS011;23050;51.776;22.638;2024-01-11T13:01:07;154.32;;;51.05;;
37157;SDS011;23050;51.776;22.638;2024-01-11T13:03:54;133.85;;;48.00;;
37157;SDS011;23050;51.776;22.638;2024-01-11T13:06:21;97.53;;;40.47;;
37157;SDS011;23050;51.776;22.638;2024-01-11T13:08:48;144.38;;;54.80;;
37157;SDS011;23050;51.776;22.638;2024-01-11T13:11:13;95.22;;;39.17;;
37157;SDS011;23050;51.776;22.638;2024-01-11T13:13:41;144.23;;;56.78;;
37157;SDS011;23050;51.776;22.638;2024-01-11T13:16:07;107.82;;;40.03;;
37157;SDS011;23050;51.776;22.638;2024-01-11T13:18:36;86.60;;;37.25;;
37157;SDS011;23050;51.776;22.638;2024-01-11T13:21:03;110.28;;;41.03;;
37157;SDS011;23050;51.776;22.638;2024-01-11T13:23:31;86.47;;;35.03;;
37157;SDS011;23050;51.776;22.638;2024-01-11T13:25:57;88.88;;;35.78;;
37157;SDS011;23050;51.776;22.638;2024-01-11T13:28:23;113.68;;;43.15;;
37157;SDS011;23050;51.776;22.638;2024-01-11T13:30:48;119.00;;;49.60;;
37157;SDS011;23050;51.776;22.638;2024-01-11T13:33:14;140.88;;;53.03;;
37157;SDS011;23050;51.776;22.638;2024-01-11T13:35:42;240.23;;;86.20;;
37157;SDS011;23050;51.776;22.638;2024-01-11T13:38:11;166.10;;;57.38;;
37157;SDS011;23050;51.776;22.638;2024-01-11T13:40:36;96.50;;;39.20;;
37157;SDS011;23050;51.776;22.638;2024-01-11T13:43:04;398.25;;;126.78;;
37157;SDS011;23050;51.776;22.638;2024-01-11T13:45:30;213.50;;;70.38;;
37157;SDS011;23050;51.776;22.638;2024-01-11T13:47:56;200.82;;;69.13;;
37157;SDS011;23050;51.776;22.638;2024-01-11T13:50:22;263.75;;;96.25;;
37157;SDS011;23050;51.776;22.638;2024-01-11T13:52:51;315.00;;;108.25;;
37157;SDS011;23050;51.776;22.638;2024-01-11T13:55:17;311.02;;;92.28;;
37157;SDS011;23050;51.776;22.638;2024-01-11T13:57:43;149.75;;;53.08;;